createdAt,value
2023-02-13T11:09:43.042Z,14.77
2023-02-13T11:12:26.834Z,15.80
2023-02-13T11:14:58.691Z,13.38
2023-02-13T11:17:29.963Z,15.27
2023-02-13T11:19:59.882Z,15.18
2023-02-13T11:22:42.592Z,15.70
2023-02-13T11:25:25.195Z,15.70
2023-02-13T11:28:07.137Z,14.15
2023-02-13T11:30:36.602Z,15.35
2023-02-13T11:33:27.572Z,16.35
2023-02-13T11:36:10.688Z,16.42
2023-02-13T11:38:37.475Z,17.48
2023-02-13T11:41:17.984Z,17.73
2023-02-13T11:43:52.317Z,18.52
2023-02-13T11:46:26.508Z,18.85
2023-02-13T11:49:05.788Z,17.88
2023-02-13T11:51:58.043Z,20.33
2023-02-13T11:54:43.722Z,18.35
2023-02-13T11:57:22.836Z,18.75
2023-02-13T11:59:52.284Z,19.83
2023-02-13T12:02:42.942Z,19.05
2023-02-13T12:05:25.233Z,20.48
2023-02-13T12:07:55.037Z,23.38
2023-02-13T12:10:23.787Z,23.63
2023-02-13T12:12:54.999Z,25.15
2023-02-13T12:15:23.601Z,21.33
2023-02-13T12:18:04.838Z,21.70
2023-02-13T12:20:46.438Z,22.85
2023-02-13T12:23:39.079Z,27.08
2023-02-13T12:26:12.425Z,25.17
2023-02-13T12:29:12.741Z,24.95
2023-02-13T12:32:02.435Z,23.30
2023-02-13T12:34:56.931Z,23.40
2023-02-13T12:37:36.257Z,22.52
2023-02-13T12:40:58.269Z,21.10
2023-02-13T12:43:46.208Z,20.10
2023-02-13T12:46:26.327Z,19.48
2023-02-13T12:49:05.403Z,22.10
2023-02-13T12:51:49.618Z,23.42
2023-02-13T12:54:55.074Z,22.50
2023-02-13T12:57:50.748Z,23.75
2023-02-13T13:01:04.127Z,21.92
2023-02-13T13:03:55.914Z,22.27
2023-02-13T13:06:43.518Z,22.33
2023-02-13T13:09:47.022Z,25.70
2023-02-13T13:12:13.880Z,27.27
2023-02-13T13:14:45.378Z,27.60
2023-02-13T13:17:44.662Z,30.73
2023-02-13T13:20:14.290Z,25.30
2023-02-13T13:22:53.436Z,28.60
2023-02-13T13:25:25.713Z,26.05
2023-02-13T13:28:07.408Z,29.02
2023-02-13T13:30:37.115Z,29.00
2023-02-13T13:33:24.465Z,29.30
2023-02-13T13:36:11.181Z,28.58
2023-02-13T13:39:09.657Z,29.30
2023-02-13T13:41:51.270Z,27.98
2023-02-13T13:44:23.807Z,32.20
2023-02-13T13:47:16.464Z,29.40
2023-02-13T13:49:49.049Z,29.38
2023-02-13T13:52:23.692Z,27.92
2023-02-13T13:54:54.134Z,25.80
2023-02-13T13:57:27.917Z,25.63
2023-02-13T14:00:20.555Z,26.42
2023-02-13T14:03:10.386Z,25.25
2023-02-13T14:06:01.534Z,26.05
2023-02-13T14:08:40.197Z,26.75
2023-02-13T14:11:32.205Z,24.45
2023-02-13T14:13:59.175Z,25.33
2023-02-13T14:16:46.082Z,25.23
2023-02-13T14:19:40.860Z,26.80
2023-02-13T14:22:32.613Z,26.60
2023-02-13T14:25:05.136Z,28.02
2023-02-13T14:27:37.989Z,27.45
2023-02-13T14:30:30.095Z,26.73
2023-02-13T14:33:00.444Z,27.65
2023-02-13T14:35:31.384Z,27.70
2023-02-13T14:37:59.997Z,28.30
2023-02-13T14:40:29.549Z,29.30
2023-02-13T14:43:01.342Z,31.80
2023-02-13T14:45:44.404Z,28.48
2023-02-13T14:48:14.244Z,29.45
2023-02-13T14:50:47.453Z,29.60
2023-02-13T14:53:31.583Z,31.13
2023-02-13T14:56:12.920Z,29.80
2023-02-13T14:58:49.761Z,28.63
2023-02-13T15:01:33.418Z,31.08
2023-02-13T15:04:12.553Z,29.70
2023-02-13T15:06:44.412Z,30.35
2023-02-13T15:09:20.680Z,29.27
2023-02-13T15:11:47.366Z,28.90
2023-02-13T15:14:27.833Z,28.45
2023-02-13T15:17:06.161Z,29.27
2023-02-13T15:19:36.810Z,29.10
2023-02-13T15:22:05.527Z,29.48
2023-02-13T15:24:46.929Z,27.58
2023-02-13T15:27:29.407Z,28.45
2023-02-13T15:30:14.855Z,28.13
2023-02-13T15:32:41.902Z,27.98
2023-02-13T15:35:31.009Z,26.35
2023-02-13T15:37:58.700Z,27.55
2023-02-13T15:40:28.660Z,27.08
2023-02-13T15:42:56.721Z,30.45
2023-02-13T15:45:26.886Z,28.75
2023-02-13T15:47:56.196Z,30.15
2023-02-13T15:50:31.919Z,28.85
2023-02-13T15:53:02.916Z,27.80
2023-02-13T15:55:33.446Z,29.13
2023-02-13T15:58:01.866Z,29.35
2023-02-13T16:00:39.712Z,28.70
2023-02-13T16:03:13.146Z,30.30
2023-02-13T16:05:42.696Z,29.33
2023-02-13T16:08:35.821Z,29.40
2023-02-13T16:11:19.031Z,27.40
2023-02-13T16:14:02.443Z,26.10
2023-02-13T16:16:34.814Z,26.48
2023-02-13T16:19:02.068Z,26.00
2023-02-13T16:21:31.273Z,26.27
2023-02-13T16:24:04.280Z,25.95
2023-02-13T16:26:31.422Z,26.80
2023-02-13T16:28:58.119Z,25.95
2023-02-13T16:31:24.994Z,25.35
2023-02-13T16:33:51.665Z,23.02
2023-02-13T16:36:28.019Z,22.27
2023-02-13T16:38:54.944Z,23.50
2023-02-13T16:41:21.958Z,25.55
2023-02-13T16:43:56.584Z,21.10
2023-02-13T16:46:29.212Z,21.35
2023-02-13T16:48:58.783Z,19.85
2023-02-13T16:51:44.173Z,19.38
2023-02-13T16:56:43.906Z,20.20
2023-02-13T16:59:24.158Z,19.95
2023-02-13T17:02:27.934Z,20.65
2023-02-13T17:05:09.920Z,20.35
2023-02-13T17:07:39.510Z,20.35
2023-02-13T17:10:17.401Z,21.20
2023-02-13T17:12:45.526Z,20.20
2023-02-13T17:15:14.235Z,23.15
2023-02-13T17:17:41.216Z,19.40
2023-02-13T17:20:14.724Z,21.63
2023-02-13T17:22:50.864Z,20.52
2023-02-13T17:25:27.949Z,20.85
2023-02-13T17:27:59.664Z,21.30
2023-02-13T17:30:29.877Z,50.33
2023-02-13T17:33:03.990Z,32.83
2023-02-13T17:35:31.587Z,37.70
2023-02-13T17:37:58.626Z,28.45
2023-02-13T17:40:29.272Z,38.17
2023-02-13T17:42:58.088Z,31.75
2023-02-13T17:45:27.650Z,32.45
2023-02-13T17:47:55.427Z,40.75
2023-02-13T17:50:22.347Z,49.78
2023-02-13T17:52:49.575Z,45.33
2023-02-13T17:55:28.065Z,42.25
2023-02-13T17:57:58.916Z,46.67
2023-02-13T18:00:29.099Z,48.55
2023-02-13T18:02:56.474Z,45.42
2023-02-13T18:05:23.361Z,44.80
2023-02-13T18:07:50.077Z,44.47
2023-02-13T18:10:20.127Z,42.70
2023-02-13T18:12:48.511Z,31.58
2023-02-13T18:15:16.779Z,32.83
2023-02-13T18:17:44.162Z,35.58
2023-02-13T18:20:14.881Z,34.65
2023-02-13T18:22:41.544Z,46.15
2023-02-13T18:25:08.866Z,40.88
2023-02-13T18:27:36.317Z,39.67
2023-02-13T18:30:03.876Z,37.88
2023-02-13T18:32:30.518Z,37.20
2023-02-13T18:34:57.220Z,41.17
2023-02-13T18:37:24.154Z,45.72
2023-02-13T18:39:50.800Z,60.85
2023-02-13T18:42:18.641Z,48.72
2023-02-13T18:44:45.285Z,45.80
2023-02-13T18:47:12.328Z,57.00
2023-02-13T18:49:39.308Z,69.90
2023-02-13T18:52:06.441Z,68.95
2023-02-13T18:54:33.122Z,54.10
2023-02-13T18:56:59.727Z,51.78
2023-02-13T18:59:26.444Z,47.67
2023-02-13T19:01:53.055Z,42.30
2023-02-13T19:04:19.775Z,40.42
2023-02-13T19:06:46.532Z,36.58
2023-02-13T19:09:13.396Z,35.17
2023-02-13T19:11:40.701Z,37.05
2023-02-13T19:14:07.506Z,35.40
2023-02-13T19:16:35.538Z,36.53
2023-02-13T19:19:05.192Z,34.35
2023-02-13T19:21:34.708Z,37.17
2023-02-13T19:24:08.522Z,34.25
2023-02-13T19:26:35.931Z,33.92
2023-02-13T19:29:03.487Z,36.38
2023-02-13T19:31:32.080Z,39.17
2023-02-13T19:34:00.251Z,34.40
2023-02-13T19:36:28.690Z,37.45
2023-02-13T19:39:02.547Z,35.97
2023-02-13T19:41:29.999Z,37.40
2023-02-13T19:43:56.793Z,32.17
2023-02-13T19:46:27.831Z,33.80
2023-02-13T19:48:55.123Z,33.03
2023-02-13T19:51:25.445Z,33.85
2023-02-13T19:53:57.501Z,34.63
2023-02-13T19:56:24.745Z,32.92
2023-02-13T19:58:51.367Z,40.00
2023-02-13T20:01:21.052Z,38.05
2023-02-13T20:03:48.925Z,35.83
2023-02-13T20:06:19.162Z,38.13
2023-02-13T20:08:46.774Z,41.03
2023-02-13T20:11:15.240Z,41.70
2023-02-13T20:13:42.024Z,40.15
2023-02-13T20:16:12.454Z,51.08
2023-02-13T20:18:39.673Z,51.20
2023-02-13T20:21:07.209Z,53.85
2023-02-13T20:23:33.994Z,56.78
2023-02-13T20:26:21.113Z,56.05
2023-02-13T20:28:48.141Z,46.40
2023-02-13T20:31:20.800Z,46.78
2023-02-13T20:33:49.765Z,57.22
2023-02-13T20:36:22.657Z,61.20
2023-02-13T20:38:51.713Z,47.35
2023-02-13T20:41:21.320Z,45.03
2023-02-13T20:43:48.930Z,45.78
2023-02-13T20:46:16.245Z,44.45
2023-02-13T20:48:45.116Z,45.42
2023-02-13T20:51:14.410Z,43.80
2023-02-13T20:53:42.478Z,44.65
2023-02-13T20:56:17.859Z,43.63
2023-02-13T20:58:46.035Z,40.38
2023-02-13T21:01:18.064Z,41.83
2023-02-13T21:03:47.724Z,42.33
2023-02-13T21:06:14.433Z,43.25
2023-02-13T21:08:43.150Z,43.38
2023-02-13T21:11:09.779Z,42.03
2023-02-13T21:13:36.727Z,41.90
2023-02-13T21:16:10.976Z,37.22
2023-02-13T21:18:39.071Z,38.85
2023-02-13T21:21:07.685Z,37.30
2023-02-13T21:23:35.171Z,38.42
2023-02-13T21:26:11.808Z,38.22
2023-02-13T21:28:39.986Z,40.90
2023-02-13T21:31:09.303Z,33.90
2023-02-13T21:33:36.327Z,34.42
2023-02-13T21:36:05.508Z,36.90
2023-02-13T21:38:32.578Z,31.70
2023-02-13T21:41:24.867Z,31.35
2023-02-13T21:43:51.959Z,32.90
2023-02-13T21:46:20.641Z,30.65
2023-02-13T21:48:51.889Z,30.45
2023-02-13T21:51:21.005Z,29.98
2023-02-13T21:53:49.286Z,32.08
2023-02-13T21:56:19.404Z,34.28
2023-02-13T21:58:47.154Z,33.60
2023-02-13T22:01:25.316Z,33.80
2023-02-13T22:03:54.339Z,33.65
2023-02-13T22:06:21.561Z,29.95
2023-02-13T22:08:48.959Z,28.73
2023-02-13T22:11:18.337Z,27.52
2023-02-13T22:13:44.963Z,29.70
2023-02-13T22:16:13.787Z,29.25
2023-02-13T22:18:42.966Z,27.15
2023-02-13T22:21:18.591Z,27.83
2023-02-13T22:23:47.168Z,26.77
2023-02-13T22:26:20.664Z,23.88
2023-02-13T22:28:47.522Z,26.67
2023-02-13T22:31:15.070Z,28.52
2023-02-13T22:33:42.962Z,27.15
2023-02-13T22:36:12.184Z,28.20
2023-02-13T22:38:40.044Z,29.73
2023-02-13T22:41:18.758Z,27.55
2023-02-13T22:43:45.584Z,23.48
2023-02-13T22:46:14.153Z,24.98
2023-02-13T22:48:41.713Z,24.27
2023-02-13T22:51:10.742Z,23.45
2023-02-13T22:53:38.019Z,25.70
2023-02-13T22:56:05.976Z,28.85
2023-02-13T22:58:32.683Z,22.48
2023-02-13T23:00:59.584Z,23.80
2023-02-13T23:03:30.120Z,22.77
2023-02-13T23:05:57.160Z,26.63
2023-02-13T23:08:23.756Z,25.35
2023-02-13T23:11:09.127Z,24.67
2023-02-13T23:16:02.358Z,20.05
2023-02-13T23:18:29.014Z,21.33
2023-02-13T23:20:55.657Z,23.48
2023-02-13T23:23:22.423Z,22.08
2023-02-13T23:25:49.030Z,21.55
2023-02-13T23:28:15.794Z,19.58
2023-02-13T23:30:42.508Z,17.88
2023-02-13T23:33:09.459Z,19.25
2023-02-13T23:35:36.096Z,19.17
2023-02-13T23:38:02.777Z,18.75
2023-02-13T23:40:29.439Z,18.42
2023-02-13T23:42:56.083Z,19.42
2023-02-13T23:45:22.732Z,19.15
2023-02-13T23:47:49.333Z,23.70
2023-02-13T23:50:15.994Z,22.17
2023-02-13T23:52:42.620Z,18.85
2023-02-13T23:55:09.234Z,19.10
2023-02-13T23:57:35.983Z,19.65
